createdAt,value
2022-12-12T00:01:34.307Z,36.35
2022-12-12T00:04:00.998Z,36.16
2022-12-12T00:06:28.255Z,36.22
2022-12-12T00:08:54.938Z,36.21
2022-12-12T00:11:22.883Z,36.13
2022-12-12T00:13:49.958Z,36.01
2022-12-12T00:16:17.230Z,36.28
2022-12-12T00:18:43.892Z,36.30
2022-12-12T00:21:19.941Z,36.18
2022-12-12T00:23:47.200Z,36.04
2022-12-12T00:26:20.394Z,36.07
2022-12-12T00:28:47.309Z,35.94
2022-12-12T00:31:14.007Z,35.97
2022-12-12T00:33:40.857Z,36.04
2022-12-12T00:36:08.562Z,35.91
2022-12-12T00:38:35.191Z,35.95
2022-12-12T00:41:02.449Z,35.63
2022-12-12T00:43:29.385Z,35.95
2022-12-12T00:45:59.326Z,35.95
2022-12-12T00:48:28.219Z,35.77
2022-12-12T00:50:56.354Z,35.72
2022-12-12T00:53:23.351Z,35.68
2022-12-12T00:55:59.530Z,35.84
2022-12-12T00:58:27.083Z,35.63
2022-12-12T01:00:54.457Z,35.64
2022-12-12T01:03:22.015Z,35.66
2022-12-12T01:05:48.658Z,35.55
2022-12-12T01:08:15.412Z,35.55
2022-12-12T01:10:42.249Z,35.56
2022-12-12T01:13:08.961Z,35.54
2022-12-12T01:15:35.531Z,35.53
2022-12-12T01:18:02.144Z,35.39
2022-12-12T01:20:28.944Z,35.62
2022-12-12T01:22:56.688Z,35.53
2022-12-12T01:25:23.816Z,35.60
2022-12-12T01:27:50.594Z,35.55
2022-12-12T01:30:19.725Z,35.32
2022-12-12T01:32:46.496Z,35.31
2022-12-12T01:35:13.176Z,35.25
2022-12-12T01:37:41.355Z,35.18
2022-12-12T01:40:13.244Z,35.36
2022-12-12T01:42:39.892Z,35.49
2022-12-12T01:45:06.989Z,35.09
2022-12-12T01:47:33.656Z,35.02
2022-12-12T01:50:09.385Z,35.14
2022-12-12T01:52:44.197Z,35.06
2022-12-12T01:55:16.029Z,35.23
2022-12-12T01:57:46.197Z,35.01
2022-12-12T02:00:14.459Z,35.06
2022-12-12T02:02:46.107Z,34.93
2022-12-12T02:05:28.061Z,34.75
2022-12-12T02:07:55.744Z,34.96
2022-12-12T02:10:22.344Z,34.94
2022-12-12T02:12:49.059Z,34.72
2022-12-12T02:15:15.909Z,34.69
2022-12-12T02:18:06.688Z,34.77
2022-12-12T02:21:04.351Z,34.56
2022-12-12T02:24:03.289Z,34.54
2022-12-12T02:26:51.585Z,34.71
2022-12-12T02:29:19.214Z,34.77
2022-12-12T02:31:52.807Z,34.47
2022-12-12T02:34:45.495Z,34.60
2022-12-12T02:37:18.640Z,34.44
2022-12-12T02:40:10.357Z,34.63
2022-12-12T02:42:55.735Z,34.37
2022-12-12T02:45:28.227Z,34.45
2022-12-12T02:48:01.218Z,34.36
2022-12-12T02:50:30.774Z,34.34
2022-12-12T02:52:59.919Z,34.47
2022-12-12T02:55:26.894Z,34.42
2022-12-12T02:57:54.211Z,34.20
2022-12-12T03:00:21.574Z,34.24
2022-12-12T03:03:28.430Z,34.06
2022-12-12T03:06:16.621Z,34.46
2022-12-12T03:08:55.344Z,34.11
2022-12-12T03:11:50.880Z,34.28
2022-12-12T03:14:36.690Z,34.16
2022-12-12T03:17:14.295Z,33.94
2022-12-12T03:19:48.464Z,34.05
2022-12-12T03:22:27.162Z,34.38
2022-12-12T03:25:09.182Z,34.08
2022-12-12T03:27:43.626Z,34.23
2022-12-12T03:30:16.581Z,34.25
2022-12-12T03:32:58.594Z,34.32
2022-12-12T03:35:33.972Z,33.91
2022-12-12T03:38:06.527Z,33.90
2022-12-12T03:40:43.609Z,33.99
2022-12-12T03:43:14.691Z,34.00
2022-12-12T03:45:55.568Z,33.94
2022-12-12T03:48:29.354Z,34.07
2022-12-12T03:50:58.288Z,33.72
2022-12-12T03:53:36.363Z,33.72
2022-12-12T03:56:19.914Z,33.94
2022-12-12T03:58:52.854Z,34.05
2022-12-12T04:01:28.403Z,33.67
2022-12-12T04:04:32.400Z,33.70
2022-12-12T04:07:06.113Z,33.92
2022-12-12T04:09:59.305Z,33.87
2022-12-12T04:12:56.541Z,33.78
2022-12-12T04:15:39.628Z,33.84
2022-12-12T04:18:16.338Z,33.73
2022-12-12T04:21:13.103Z,33.88
2022-12-12T04:23:56.379Z,33.77
2022-12-12T04:26:41.696Z,33.60
2022-12-12T04:29:23.616Z,33.74
2022-12-12T04:32:12.794Z,33.58
2022-12-12T04:34:52.172Z,33.78
2022-12-12T04:37:23.921Z,33.73
2022-12-12T04:39:54.242Z,33.86
2022-12-12T04:42:25.723Z,33.61
2022-12-12T04:44:56.179Z,33.73
2022-12-12T04:47:24.764Z,33.61
2022-12-12T04:49:53.882Z,33.52
2022-12-12T04:52:22.443Z,33.71
2022-12-12T04:55:24.418Z,33.44
2022-12-12T04:57:54.726Z,33.65
2022-12-12T05:00:22.957Z,33.55
2022-12-12T05:02:55.527Z,33.62
2022-12-12T05:05:29.631Z,33.33
2022-12-12T05:08:02.712Z,33.30
2022-12-12T05:10:30.287Z,33.45
2022-12-12T05:12:59.966Z,33.29
2022-12-12T05:15:28.323Z,33.44
2022-12-12T05:18:07.900Z,33.49
2022-12-12T05:20:34.822Z,33.51
2022-12-12T05:23:01.406Z,33.81
2022-12-12T05:25:28.075Z,34.03
2022-12-12T05:27:54.604Z,34.08
2022-12-12T05:30:21.570Z,34.53
2022-12-12T05:32:48.535Z,34.91
2022-12-12T05:35:15.393Z,35.17
2022-12-12T05:37:45.520Z,35.75
2022-12-12T05:40:16.557Z,35.76
2022-12-12T05:42:43.124Z,35.66
2022-12-12T05:45:11.126Z,35.81
2022-12-12T05:47:38.195Z,35.89
2022-12-12T05:50:05.890Z,35.75
2022-12-12T05:52:32.775Z,35.61
2022-12-12T05:54:59.469Z,35.52
2022-12-12T05:57:26.002Z,35.53
2022-12-12T05:59:52.751Z,36.08
2022-12-12T06:02:19.436Z,36.11
2022-12-12T06:04:47.689Z,36.12
2022-12-12T06:07:14.290Z,36.31
2022-12-12T06:09:41.008Z,36.08
2022-12-12T06:12:08.032Z,36.05
2022-12-12T06:14:34.665Z,36.08
2022-12-12T06:17:01.418Z,36.00
2022-12-12T06:19:28.204Z,36.18
2022-12-12T06:21:54.744Z,36.33
2022-12-12T06:24:21.440Z,36.80
2022-12-12T06:26:47.993Z,37.07
2022-12-12T06:29:15.223Z,37.12
2022-12-12T06:31:41.928Z,37.23
2022-12-12T06:34:08.573Z,37.20
2022-12-12T06:36:35.175Z,37.16
2022-12-12T06:39:02.039Z,36.91
2022-12-12T06:41:30.401Z,36.86
2022-12-12T06:43:57.349Z,36.51
2022-12-12T06:46:27.240Z,36.68
2022-12-12T06:48:55.135Z,36.72
2022-12-12T06:51:24.752Z,36.26
2022-12-12T06:53:51.527Z,36.19
2022-12-12T06:56:24.006Z,36.06
2022-12-12T06:58:51.646Z,36.08
2022-12-12T07:01:20.386Z,35.89
2022-12-12T07:03:49.523Z,35.97
2022-12-12T07:06:17.392Z,35.87
2022-12-12T07:08:44.325Z,36.06
2022-12-12T07:11:13.274Z,35.91
2022-12-12T07:13:40.532Z,35.95
2022-12-12T07:16:07.530Z,35.56
2022-12-12T07:18:35.008Z,35.65
2022-12-12T07:21:05.749Z,35.47
2022-12-12T07:23:33.636Z,35.46
2022-12-12T07:26:04.108Z,34.90
2022-12-12T07:28:31.039Z,35.26
2022-12-12T07:30:57.669Z,35.23
2022-12-12T07:33:29.760Z,35.01
2022-12-12T07:36:02.812Z,34.73
2022-12-12T07:38:29.371Z,34.70
2022-12-12T07:40:56.019Z,34.65
2022-12-12T07:43:26.467Z,34.71
2022-12-12T07:45:53.460Z,34.90
2022-12-12T07:48:20.287Z,34.86
2022-12-12T07:50:50.420Z,34.93
2022-12-12T07:53:16.945Z,34.78
2022-12-12T07:55:43.516Z,34.89
2022-12-12T07:58:10.143Z,34.76
2022-12-12T08:00:36.747Z,34.97
2022-12-12T08:03:03.420Z,34.87
2022-12-12T08:05:29.980Z,34.71
2022-12-12T08:07:56.704Z,34.81
2022-12-12T08:10:23.314Z,34.95
2022-12-12T08:12:50.138Z,34.68
2022-12-12T08:15:17.990Z,34.89
2022-12-12T08:17:44.783Z,34.60
2022-12-12T08:20:11.683Z,34.62
2022-12-12T08:22:38.287Z,34.58
2022-12-12T08:25:05.279Z,34.70
2022-12-12T08:27:32.645Z,34.77
2022-12-12T08:29:59.223Z,34.75
2022-12-12T08:32:25.827Z,34.84
2022-12-12T08:34:58.883Z,34.56
2022-12-12T08:37:25.764Z,34.73
2022-12-12T08:39:55.563Z,34.46
2022-12-12T08:42:22.786Z,34.22
2022-12-12T08:44:49.911Z,34.33
2022-12-12T08:47:16.518Z,34.10
2022-12-12T08:49:43.511Z,34.06
2022-12-12T08:52:10.427Z,33.79
2022-12-12T08:54:38.141Z,33.89
2022-12-12T08:57:04.769Z,34.15
2022-12-12T08:59:31.303Z,34.18
2022-12-12T09:01:58.048Z,34.50
2022-12-12T09:04:24.689Z,34.84
2022-12-12T09:06:51.293Z,35.07
2022-12-12T09:11:42.517Z,35.29
2022-12-12T09:14:09.143Z,35.34
2022-12-12T09:16:35.724Z,35.59
2022-12-12T09:19:02.346Z,35.60
2022-12-12T09:21:28.857Z,35.52
2022-12-12T09:23:55.435Z,35.63
2022-12-12T09:26:22.099Z,35.47
2022-12-12T09:28:49.373Z,35.55
2022-12-12T09:31:17.622Z,35.45
2022-12-12T09:33:44.390Z,35.69
2022-12-12T09:36:14.994Z,35.53
2022-12-12T09:38:41.851Z,35.37
2022-12-12T09:41:20.411Z,35.49
2022-12-12T09:44:09.983Z,35.48
2022-12-12T09:46:44.238Z,35.17
2022-12-12T09:49:12.970Z,35.21
2022-12-12T09:51:41.798Z,35.22
2022-12-12T09:54:13.196Z,35.18
2022-12-12T09:56:53.543Z,35.17
2022-12-12T09:59:29.780Z,35.24
2022-12-12T10:02:38.163Z,35.17
2022-12-12T10:05:17.203Z,35.30
2022-12-12T10:07:57.497Z,35.36
2022-12-12T10:10:40.235Z,35.28
2022-12-12T10:13:14.728Z,34.92
2022-12-12T10:15:46.468Z,34.91
2022-12-12T10:18:26.902Z,34.87
2022-12-12T10:20:57.475Z,35.30
2022-12-12T10:23:33.355Z,35.06
2022-12-12T10:26:07.087Z,34.66
2022-12-12T10:28:35.711Z,34.20
2022-12-12T10:31:30.235Z,34.04
2022-12-12T10:34:09.022Z,33.61
2022-12-12T10:39:14.536Z,33.50
2022-12-12T10:41:44.031Z,33.15
2022-12-12T10:44:13.972Z,33.29
2022-12-12T10:46:59.632Z,33.22
2022-12-12T10:49:26.557Z,32.95
2022-12-12T10:54:28.070Z,32.96
2022-12-12T10:57:09.376Z,32.86
2022-12-12T10:59:48.158Z,32.92
2022-12-12T11:02:39.524Z,33.00
2022-12-12T11:05:21.692Z,33.59
2022-12-12T11:07:59.533Z,33.96
2022-12-12T11:10:35.537Z,34.12
2022-12-12T11:13:13.551Z,34.61
2022-12-12T11:15:58.443Z,34.87
2022-12-12T11:18:26.603Z,34.98
2022-12-12T11:20:57.269Z,35.13
2022-12-12T11:23:26.866Z,35.23
2022-12-12T11:25:57.267Z,35.42
2022-12-12T11:28:27.953Z,35.15
2022-12-12T11:30:56.485Z,34.94
2022-12-12T11:33:32.440Z,34.87
2022-12-12T11:35:59.593Z,34.74
2022-12-12T11:38:37.206Z,34.89
2022-12-12T11:41:07.266Z,34.70
2022-12-12T11:43:52.421Z,34.87
2022-12-12T11:46:23.638Z,34.72
2022-12-12T11:48:53.242Z,34.91
2022-12-12T11:51:43.181Z,34.83
2022-12-12T11:54:16.044Z,34.72
2022-12-12T11:56:58.434Z,34.70
2022-12-12T11:59:43.716Z,34.53
2022-12-12T12:02:24.724Z,34.60
2022-12-12T12:05:20.368Z,34.69
2022-12-12T12:08:24.577Z,34.42
2022-12-12T12:11:26.491Z,34.26
2022-12-12T12:14:05.516Z,34.26
2022-12-12T12:16:35.152Z,34.10
2022-12-12T12:19:31.038Z,34.15
2022-12-12T12:22:30.122Z,33.91
2022-12-12T12:25:07.382Z,33.98
2022-12-12T12:28:03.350Z,33.75
2022-12-12T12:30:34.934Z,33.87
2022-12-12T12:33:27.806Z,33.91
2022-12-12T12:36:17.673Z,33.93
2022-12-12T12:39:07.899Z,33.65
2022-12-12T12:42:05.258Z,33.47
2022-12-12T12:44:52.192Z,34.01
2022-12-12T12:47:33.829Z,34.20
2022-12-12T12:50:15.581Z,34.31
2022-12-12T12:53:06.550Z,34.15
2022-12-12T12:55:40.900Z,33.90
2022-12-12T12:58:18.147Z,33.93
2022-12-12T13:00:46.009Z,33.67
2022-12-12T13:03:24.394Z,33.55
2022-12-12T13:06:02.199Z,33.65
2022-12-12T13:08:35.195Z,33.40
2022-12-12T13:11:30.856Z,33.46
2022-12-12T13:14:12.086Z,33.40
2022-12-12T13:16:39.877Z,33.95
2022-12-12T13:19:13.508Z,34.19
2022-12-12T13:21:59.944Z,34.61
2022-12-12T13:24:42.136Z,34.87
2022-12-12T13:27:20.483Z,34.96
2022-12-12T13:30:00.003Z,35.16
2022-12-12T13:32:39.695Z,35.55
2022-12-12T13:35:14.152Z,35.48
2022-12-12T13:37:51.039Z,35.83
2022-12-12T13:40:36.515Z,36.12
2022-12-12T13:43:24.884Z,36.00
2022-12-12T13:45:51.523Z,36.04
2022-12-12T13:48:27.283Z,36.22
2022-12-12T13:51:27.991Z,36.19
2022-12-12T13:54:20.683Z,35.99
2022-12-12T13:56:53.074Z,35.95
2022-12-12T13:59:22.484Z,35.87
2022-12-12T14:01:55.390Z,35.96
2022-12-12T14:04:28.246Z,35.70
2022-12-12T14:06:59.303Z,35.73
2022-12-12T14:09:46.674Z,35.36
2022-12-12T14:12:31.816Z,35.47
2022-12-12T14:15:02.875Z,35.40
2022-12-12T14:17:38.332Z,35.03
2022-12-12T14:20:08.896Z,35.25
2022-12-12T14:22:38.234Z,35.00
2022-12-12T14:25:18.638Z,35.05
2022-12-12T14:27:51.169Z,35.03
2022-12-12T14:30:22.123Z,35.09
2022-12-12T14:33:01.877Z,34.96
2022-12-12T14:35:41.023Z,34.69
2022-12-12T14:38:33.931Z,34.89
2022-12-12T14:41:04.532Z,34.77
2022-12-12T14:43:37.122Z,34.70
2022-12-12T14:46:04.116Z,34.70
2022-12-12T14:51:10.986Z,34.44
2022-12-12T14:53:37.521Z,34.35
2022-12-12T14:56:11.024Z,34.48
2022-12-12T14:58:44.649Z,34.38
2022-12-12T15:01:11.902Z,34.52
2022-12-12T15:03:43.968Z,34.16
2022-12-12T15:06:20.902Z,34.25
2022-12-12T15:08:48.770Z,33.97
2022-12-12T15:11:18.064Z,34.20
2022-12-12T15:13:59.547Z,34.03
2022-12-12T15:16:40.690Z,33.74
2022-12-12T15:19:33.888Z,33.58
2022-12-12T15:22:00.660Z,33.62
2022-12-12T15:24:36.799Z,33.37
2022-12-12T15:27:04.972Z,33.42
2022-12-12T15:29:33.003Z,33.40
2022-12-12T15:32:03.783Z,33.25
2022-12-12T15:34:31.915Z,33.38
2022-12-12T15:37:10.746Z,33.47
2022-12-12T15:39:37.464Z,33.31
2022-12-12T15:42:04.272Z,33.31
2022-12-12T15:44:31.967Z,33.34
2022-12-12T15:46:58.972Z,33.18
2022-12-12T15:49:37.809Z,33.25
2022-12-12T15:52:29.660Z,33.35
2022-12-12T15:54:58.722Z,33.15
2022-12-12T15:57:44.991Z,33.16
2022-12-12T16:00:36.044Z,33.35
2022-12-12T16:03:20.451Z,33.42
2022-12-12T16:05:58.886Z,33.89
2022-12-12T16:08:35.886Z,34.12
2022-12-12T16:11:37.510Z,34.13
2022-12-12T16:14:06.017Z,33.72
2022-12-12T16:16:48.245Z,33.71
2022-12-12T16:19:38.190Z,33.46
2022-12-12T16:22:26.778Z,33.47
2022-12-12T16:24:57.203Z,33.26
2022-12-12T16:27:23.796Z,33.25
2022-12-12T16:29:50.726Z,33.24
2022-12-12T16:32:20.296Z,33.14
2022-12-12T16:34:46.914Z,33.16
2022-12-12T16:37:16.526Z,33.14
2022-12-12T16:39:44.034Z,33.17
2022-12-12T16:42:15.789Z,32.92
2022-12-12T16:44:43.111Z,32.74
2022-12-12T16:47:30.352Z,32.76
2022-12-12T16:49:57.159Z,32.82
2022-12-12T16:52:23.720Z,32.80
2022-12-12T16:54:53.533Z,32.83
2022-12-12T16:57:21.684Z,32.79
2022-12-12T16:59:51.020Z,32.68
2022-12-12T17:02:22.690Z,32.89
2022-12-12T17:04:50.747Z,32.87
2022-12-12T17:07:17.689Z,32.80
2022-12-12T17:09:44.868Z,32.78
2022-12-12T17:12:13.039Z,32.62
2022-12-12T17:14:39.699Z,32.75
2022-12-12T17:17:06.643Z,32.88
2022-12-12T17:19:34.407Z,32.84
2022-12-12T17:22:00.928Z,32.67
2022-12-12T17:24:28.310Z,32.82
2022-12-12T17:26:55.167Z,32.67
2022-12-12T17:29:24.999Z,32.62
2022-12-12T17:31:51.742Z,32.53
2022-12-12T17:34:18.352Z,32.76
2022-12-12T17:36:45.143Z,32.80
2022-12-12T17:39:11.764Z,32.65
2022-12-12T17:41:38.351Z,32.84
2022-12-12T17:44:05.123Z,32.71
2022-12-12T17:46:32.303Z,32.72
2022-12-12T17:48:59.415Z,32.68
2022-12-12T17:51:27.289Z,32.57
2022-12-12T17:53:54.591Z,32.70
2022-12-12T17:56:23.826Z,32.68
2022-12-12T17:58:51.049Z,32.61
2022-12-12T18:01:24.362Z,32.58
2022-12-12T18:03:51.791Z,32.56
2022-12-12T18:06:20.276Z,32.56
2022-12-12T18:08:47.647Z,32.58
2022-12-12T18:11:17.497Z,32.72
2022-12-12T18:13:45.614Z,32.74
2022-12-12T18:16:13.407Z,32.87
2022-12-12T18:18:40.780Z,32.77
2022-12-12T18:21:12.713Z,33.03
2022-12-12T18:23:39.766Z,33.18
2022-12-12T18:26:18.617Z,33.40
2022-12-12T18:28:57.239Z,33.59
2022-12-12T18:31:23.968Z,33.81
2022-12-12T18:33:51.587Z,33.97
2022-12-12T18:36:20.672Z,33.70
2022-12-12T18:38:49.722Z,33.73
2022-12-12T18:41:16.872Z,33.75
2022-12-12T18:43:43.865Z,33.86
2022-12-12T18:46:13.516Z,33.90
2022-12-12T18:48:44.090Z,33.97
2022-12-12T18:51:16.985Z,34.08
2022-12-12T18:53:44.688Z,34.13
2022-12-12T18:56:15.909Z,34.12
2022-12-12T18:58:43.449Z,34.12
2022-12-12T19:01:19.027Z,33.92
2022-12-12T19:03:48.984Z,33.79
2022-12-12T19:06:18.271Z,33.68
2022-12-12T19:08:44.812Z,34.73
2022-12-12T19:11:12.404Z,37.01
2022-12-12T19:13:39.527Z,37.67
2022-12-12T19:16:09.333Z,37.58
2022-12-12T19:18:36.121Z,37.43
2022-12-12T19:21:09.840Z,37.14
2022-12-12T19:23:37.180Z,37.03
2022-12-12T19:26:08.979Z,36.85
2022-12-12T19:28:36.190Z,36.84
2022-12-12T19:31:12.669Z,37.00
2022-12-12T19:33:39.495Z,36.80
2022-12-12T19:36:18.441Z,36.53
2022-12-12T19:38:46.459Z,36.35
2022-12-12T19:41:15.489Z,36.04
2022-12-12T19:43:43.729Z,35.96
2022-12-12T19:46:11.503Z,35.75
2022-12-12T19:48:38.791Z,35.37
2022-12-12T19:51:13.534Z,35.42
2022-12-12T19:53:43.630Z,35.40
2022-12-12T19:56:19.650Z,34.97
2022-12-12T19:58:47.346Z,34.90
2022-12-12T20:01:20.312Z,34.90
2022-12-12T20:03:52.087Z,34.73
2022-12-12T20:06:20.090Z,34.40
2022-12-12T20:08:47.729Z,34.54
2022-12-12T20:11:17.448Z,34.42
2022-12-12T20:13:49.488Z,34.37
2022-12-12T20:16:18.694Z,34.23
2022-12-12T20:18:52.487Z,34.25
2022-12-12T20:21:51.833Z,34.20
2022-12-12T20:24:09.683Z,34.10
2022-12-12T20:26:36.547Z,34.03
2022-12-12T20:29:03.760Z,34.07
2022-12-12T20:31:34.125Z,34.10
2022-12-12T20:34:01.388Z,34.05
2022-12-12T20:36:31.592Z,34.17
2022-12-12T20:39:00.587Z,34.26
2022-12-12T20:41:30.282Z,34.29
2022-12-12T20:43:59.265Z,34.47
2022-12-12T20:46:31.992Z,34.46
2022-12-12T20:49:00.661Z,34.25
2022-12-12T20:51:53.916Z,34.33
2022-12-12T20:54:17.314Z,34.40
2022-12-12T20:56:47.311Z,34.34
2022-12-12T20:59:14.445Z,34.26
2022-12-12T21:01:41.677Z,34.19
2022-12-12T21:04:09.700Z,34.39
2022-12-12T21:06:39.679Z,34.13
2022-12-12T21:09:09.384Z,34.05
2022-12-12T21:11:37.603Z,34.19
2022-12-12T21:14:04.348Z,34.16
2022-12-12T21:16:34.450Z,34.19
2022-12-12T21:19:04.544Z,34.28
2022-12-12T21:21:31.516Z,34.39
2022-12-12T21:23:58.293Z,34.33
2022-12-12T21:26:29.157Z,34.31
2022-12-12T21:28:57.615Z,34.33
2022-12-12T21:31:33.024Z,34.31
2022-12-12T21:34:00.317Z,34.22
2022-12-12T21:36:28.588Z,34.26
2022-12-12T21:38:57.588Z,34.35
2022-12-12T21:41:25.728Z,34.24
2022-12-12T21:43:54.296Z,34.34
2022-12-12T21:46:23.648Z,34.34
2022-12-12T21:49:09.679Z,34.25
2022-12-12T21:51:36.588Z,34.25
2022-12-12T21:54:04.925Z,34.31
2022-12-12T21:56:31.926Z,34.37
2022-12-12T21:58:58.946Z,34.32
2022-12-12T22:01:26.083Z,34.28
2022-12-12T22:03:54.608Z,34.28
2022-12-12T22:06:24.176Z,34.17
2022-12-12T22:08:51.464Z,34.21
2022-12-12T22:11:40.203Z,34.25
2022-12-12T22:14:07.294Z,34.33
2022-12-12T22:16:33.928Z,34.25
2022-12-12T22:19:10.730Z,34.29
2022-12-12T22:21:38.874Z,34.43
2022-12-12T22:24:06.016Z,34.41
2022-12-12T22:26:41.056Z,34.45
2022-12-12T22:29:12.890Z,34.17
2022-12-12T22:31:40.435Z,34.46
2022-12-12T22:34:15.645Z,34.14
2022-12-12T22:36:43.535Z,34.24
2022-12-12T22:39:25.880Z,34.17
2022-12-12T22:41:54.530Z,33.98
2022-12-12T22:44:22.924Z,34.01
2022-12-12T22:46:51.282Z,34.37
2022-12-12T22:49:20.967Z,34.70
2022-12-12T22:51:49.045Z,35.06
2022-12-12T22:54:15.867Z,35.30
2022-12-12T22:56:43.802Z,35.20
2022-12-12T22:59:13.336Z,35.13
2022-12-12T23:01:41.339Z,35.07
2022-12-12T23:04:12.784Z,34.95
2022-12-12T23:06:39.728Z,34.85
2022-12-12T23:09:14.202Z,34.65
2022-12-12T23:11:41.037Z,34.67
2022-12-12T23:14:11.328Z,34.53
2022-12-12T23:16:37.943Z,34.45
2022-12-12T23:19:06.277Z,34.43
2022-12-12T23:21:35.280Z,34.24
2022-12-12T23:24:02.335Z,34.41
2022-12-12T23:26:30.431Z,34.26
2022-12-12T23:29:00.231Z,34.18
2022-12-12T23:31:32.736Z,34.08
2022-12-12T23:34:02.226Z,34.21
2022-12-12T23:36:29.685Z,34.01
2022-12-12T23:39:01.066Z,34.10
2022-12-12T23:41:28.556Z,34.09
2022-12-12T23:43:55.740Z,34.13
2022-12-12T23:46:29.833Z,34.21
2022-12-12T23:49:13.270Z,34.08
2022-12-12T23:51:47.635Z,34.10
2022-12-12T23:54:17.429Z,34.06
2022-12-12T23:56:44.930Z,34.54
2022-12-12T23:59:17.556Z,34.08
